createdAt,value
2023-05-22T00:02:50.846Z,12.51
2023-05-22T00:07:52.684Z,12.44
2023-05-22T00:12:54.297Z,12.40
2023-05-22T00:17:55.988Z,12.36
2023-05-22T00:22:58.044Z,12.35
2023-05-22T00:27:59.622Z,12.29
2023-05-22T00:33:02.360Z,12.22
2023-05-22T00:38:05.424Z,12.18
2023-05-22T00:43:08.672Z,12.12
2023-05-22T00:48:12.375Z,12.07
2023-05-22T00:53:14.887Z,12.04
2023-05-22T00:58:20.076Z,12.01
2023-05-22T01:03:26.323Z,11.92
2023-05-22T01:08:28.746Z,11.86
2023-05-22T01:13:44.544Z,11.81
2023-05-22T01:19:10.998Z,11.79
2023-05-22T01:24:45.173Z,11.83
2023-05-22T01:29:59.082Z,11.82
2023-05-22T01:35:03.367Z,11.77
2023-05-22T01:40:06.496Z,11.75
2023-05-22T01:45:11.812Z,11.74
2023-05-22T01:50:14.686Z,11.67
2023-05-22T01:55:27.607Z,11.60
2023-05-22T02:00:31.422Z,11.53
2023-05-22T02:05:35.910Z,11.42
2023-05-22T02:10:39.589Z,11.37
2023-05-22T02:15:48.012Z,11.39
2023-05-22T02:20:49.658Z,11.52
2023-05-22T02:25:51.352Z,11.47
2023-05-22T02:30:53.124Z,11.62
2023-05-22T02:35:54.798Z,11.72
2023-05-22T02:40:56.494Z,12.00
2023-05-22T02:45:58.115Z,12.18
2023-05-22T02:50:59.739Z,12.27
2023-05-22T02:56:01.303Z,12.36
2023-05-22T03:01:03.597Z,12.41
2023-05-22T03:06:05.396Z,12.44
2023-05-22T03:11:08.174Z,12.40
2023-05-22T03:16:10.954Z,12.42
2023-05-22T03:21:17.595Z,12.46
2023-05-22T03:26:19.194Z,12.47
2023-05-22T03:31:20.753Z,12.45
2023-05-22T03:36:34.243Z,12.40
2023-05-22T03:41:37.015Z,12.34
2023-05-22T03:46:39.230Z,12.34
2023-05-22T03:51:41.012Z,12.35
2023-05-22T03:56:43.742Z,12.37
2023-05-22T04:01:46.707Z,12.39
2023-05-22T04:06:49.700Z,12.39
2023-05-22T04:11:53.259Z,12.54
2023-05-22T04:16:54.921Z,12.68
2023-05-22T04:21:58.272Z,12.84
2023-05-22T04:27:00.522Z,13.02
2023-05-22T04:32:02.296Z,13.23
2023-05-22T04:37:05.359Z,13.48
2023-05-22T04:42:07.199Z,13.77
2023-05-22T04:47:14.557Z,14.13
2023-05-22T04:52:16.425Z,14.52
2023-05-22T04:57:21.293Z,14.94
2023-05-22T05:02:25.685Z,15.41
2023-05-22T05:07:27.929Z,15.86
2023-05-22T05:12:29.555Z,16.28
2023-05-22T05:17:31.238Z,16.50
2023-05-22T05:22:33.163Z,16.76
2023-05-22T05:27:36.479Z,17.21
2023-05-22T05:32:38.693Z,17.69
2023-05-22T05:37:52.975Z,18.23
2023-05-22T05:42:56.267Z,19.07
2023-05-22T05:48:00.885Z,19.59
2023-05-22T05:53:02.586Z,20.03
2023-05-22T05:58:04.332Z,20.38
2023-05-22T06:03:25.610Z,20.66
2023-05-22T06:08:39.280Z,20.81
2023-05-22T06:13:41.059Z,21.11
2023-05-22T06:18:42.679Z,21.64
2023-05-22T06:23:44.428Z,22.12
2023-05-22T06:28:46.317Z,22.81
2023-05-22T06:33:48.234Z,23.13
2023-05-22T06:38:50.113Z,23.09
2023-05-22T06:44:14.889Z,22.92
2023-05-22T06:49:16.880Z,22.77
2023-05-22T06:54:28.701Z,22.39
2023-05-22T06:59:32.093Z,21.98
2023-05-22T07:04:44.905Z,21.87
2023-05-22T07:09:51.765Z,21.97
2023-05-22T07:14:54.688Z,22.07
2023-05-22T07:19:58.392Z,21.95
2023-05-22T07:25:02.938Z,21.97
2023-05-22T07:30:08.110Z,22.23
2023-05-22T07:35:11.707Z,23.06
2023-05-22T07:40:14.416Z,23.87
2023-05-22T07:45:16.186Z,24.21
2023-05-22T07:50:18.014Z,24.64
2023-05-22T07:55:21.237Z,24.96
2023-05-22T08:00:27.306Z,25.38
2023-05-22T08:05:28.953Z,25.84
2023-05-22T08:10:46.544Z,26.50
2023-05-22T08:15:49.185Z,27.15
2023-05-22T08:20:54.309Z,27.48
2023-05-22T08:25:58.030Z,27.79
2023-05-22T08:30:59.630Z,28.14
2023-05-22T08:36:01.259Z,28.06
2023-05-22T08:41:03.015Z,27.73
2023-05-22T08:46:06.259Z,27.95
2023-05-22T08:51:09.139Z,27.99
2023-05-22T08:56:10.935Z,28.06
2023-05-22T09:01:14.037Z,28.00
2023-05-22T09:06:21.095Z,27.89
2023-05-22T09:11:22.734Z,28.08
2023-05-22T09:16:25.442Z,27.45
2023-05-22T09:21:30.723Z,27.30
2023-05-22T09:26:33.684Z,27.17
2023-05-22T09:31:42.154Z,26.81
2023-05-22T09:36:44.048Z,26.85
2023-05-22T09:41:45.764Z,27.07
2023-05-22T09:46:48.141Z,26.84
2023-05-22T09:51:54.480Z,26.96
2023-05-22T09:56:58.688Z,26.81
2023-05-22T10:02:02.202Z,26.63
2023-05-22T10:07:05.615Z,26.75
2023-05-22T10:12:10.307Z,26.70
2023-05-22T10:17:12.619Z,26.87
2023-05-22T10:22:20.801Z,27.13
2023-05-22T10:27:22.412Z,27.37
2023-05-22T10:32:46.742Z,27.43
2023-05-22T10:38:14.998Z,27.42
2023-05-22T10:43:16.759Z,27.46
2023-05-22T10:48:22.207Z,27.49
2023-05-22T10:53:28.301Z,27.41
2023-05-22T10:58:37.312Z,27.42
2023-05-22T11:03:53.177Z,27.51
2023-05-22T11:08:56.496Z,27.62
2023-05-22T11:14:04.364Z,27.58
2023-05-22T11:19:21.832Z,27.72
2023-05-22T11:24:24.942Z,27.83
2023-05-22T11:29:27.165Z,27.87
2023-05-22T11:34:29.000Z,27.84
2023-05-22T11:39:33.757Z,28.03
2023-05-22T11:44:35.629Z,28.03
2023-05-22T11:49:37.393Z,27.99
2023-05-22T11:54:39.182Z,28.01
2023-05-22T11:59:44.976Z,28.14
2023-05-22T12:04:46.698Z,28.25
2023-05-22T12:09:49.295Z,28.10
2023-05-22T12:14:51.121Z,28.24
2023-05-22T12:19:53.362Z,27.73
2023-05-22T12:24:55.684Z,27.65
2023-05-22T12:29:58.165Z,27.96
2023-05-22T12:35:00.043Z,28.11
2023-05-22T12:40:04.317Z,28.40
2023-05-22T12:45:06.479Z,28.54
2023-05-22T12:50:08.845Z,28.76
2023-05-22T12:55:10.925Z,29.04
2023-05-22T13:00:13.482Z,29.19
2023-05-22T13:05:15.819Z,29.27
2023-05-22T13:10:18.986Z,29.35
2023-05-22T13:15:20.727Z,29.44
2023-05-22T13:20:23.723Z,29.58
2023-05-22T13:25:25.352Z,29.60
2023-05-22T13:30:27.064Z,29.64
2023-05-22T13:35:28.681Z,29.86
2023-05-22T13:40:30.705Z,29.94
2023-05-22T13:45:34.432Z,29.92
2023-05-22T13:50:36.053Z,29.79
2023-05-22T13:55:37.957Z,29.78
2023-05-22T14:00:39.716Z,29.65
2023-05-22T14:05:41.491Z,29.46
2023-05-22T14:10:43.335Z,29.55
2023-05-22T14:15:46.966Z,29.46
2023-05-22T14:20:48.852Z,29.57
2023-05-22T14:25:50.432Z,29.62
2023-05-22T14:30:52.078Z,29.73
2023-05-22T14:35:53.820Z,29.81
2023-05-22T14:40:55.400Z,29.80
2023-05-22T14:45:58.155Z,29.88
2023-05-22T14:51:00.012Z,29.85
2023-05-22T14:56:01.628Z,29.83
2023-05-22T15:01:03.465Z,29.88
2023-05-22T15:06:05.187Z,29.96
2023-05-22T15:11:06.755Z,29.96
2023-05-22T15:16:08.359Z,29.87
2023-05-22T15:21:10.174Z,29.57
2023-05-22T15:26:11.940Z,29.71
2023-05-22T15:31:14.059Z,29.79
2023-05-22T15:36:15.897Z,29.77
2023-05-22T15:41:17.485Z,29.66
2023-05-22T15:46:19.516Z,29.42
2023-05-22T15:51:21.215Z,28.87
2023-05-22T15:56:23.698Z,28.38
2023-05-22T16:01:26.054Z,27.92
2023-05-22T16:06:28.553Z,27.31
2023-05-22T16:11:30.267Z,26.95
2023-05-22T16:16:31.944Z,26.75
2023-05-22T16:21:33.635Z,26.43
2023-05-22T16:26:37.622Z,25.95
2023-05-22T16:31:39.322Z,24.90
2023-05-22T16:36:40.964Z,23.91
2023-05-22T16:41:42.706Z,23.28
2023-05-22T16:46:44.378Z,22.92
2023-05-22T16:51:46.071Z,22.71
2023-05-22T16:56:47.653Z,22.60
2023-05-22T17:01:49.340Z,22.39
2023-05-22T17:06:53.722Z,22.42
2023-05-22T17:11:55.402Z,22.46
2023-05-22T17:16:56.976Z,22.42
2023-05-22T17:21:58.687Z,22.44
2023-05-22T17:27:00.615Z,22.34
2023-05-22T17:32:04.816Z,22.31
2023-05-22T17:37:06.626Z,22.09
2023-05-22T17:42:08.238Z,21.95
2023-05-22T17:47:09.824Z,21.92
2023-05-22T17:52:13.008Z,21.86
2023-05-22T17:57:14.634Z,21.84
2023-05-22T18:02:16.325Z,21.79
2023-05-22T18:07:19.284Z,21.76
2023-05-22T18:17:25.622Z,21.62
2023-05-22T18:22:27.289Z,21.62
2023-05-22T18:27:29.043Z,21.46
2023-05-22T18:32:31.375Z,21.31
2023-05-22T18:37:33.117Z,21.11
2023-05-22T18:42:34.851Z,20.78
2023-05-22T18:47:36.645Z,20.60
2023-05-22T18:52:38.300Z,20.53
2023-05-22T18:57:39.876Z,20.35
2023-05-22T19:02:41.472Z,20.21
2023-05-22T19:07:43.170Z,20.02
2023-05-22T19:12:44.748Z,19.77
2023-05-22T19:17:46.385Z,19.47
2023-05-22T19:22:48.118Z,19.19
2023-05-22T19:27:49.861Z,18.88
2023-05-22T19:32:55.657Z,18.62
2023-05-22T19:37:57.457Z,18.53
2023-05-22T19:42:59.130Z,18.40
2023-05-22T19:48:00.876Z,18.29
2023-05-22T19:53:02.514Z,18.09
2023-05-22T19:58:04.100Z,17.76
2023-05-22T20:03:05.855Z,17.71
2023-05-22T20:08:07.706Z,17.51
2023-05-22T20:13:09.369Z,17.40
2023-05-22T20:18:11.003Z,17.17
2023-05-22T20:23:12.711Z,17.12
2023-05-22T20:28:14.314Z,17.02
2023-05-22T20:33:16.873Z,16.75
2023-05-22T20:38:18.992Z,16.57
2023-05-22T20:43:20.785Z,16.42
2023-05-22T20:48:22.360Z,16.34
2023-05-22T20:53:24.606Z,16.23
2023-05-22T20:58:26.185Z,16.09
2023-05-22T21:03:28.834Z,16.00
2023-05-22T21:08:30.592Z,15.93
2023-05-22T21:13:32.132Z,15.82
2023-05-22T21:18:33.753Z,15.70
2023-05-22T21:23:35.573Z,15.59
2023-05-22T21:28:37.176Z,15.55
2023-05-22T21:33:38.765Z,15.48
2023-05-22T21:38:40.409Z,15.43
2023-05-22T21:43:42.345Z,15.38
2023-05-22T21:48:43.993Z,15.30
2023-05-22T21:53:46.616Z,15.15
2023-05-22T21:58:48.616Z,14.95
2023-05-22T22:03:50.249Z,14.81
2023-05-22T22:08:53.197Z,14.77
2023-05-22T22:13:55.093Z,14.77
2023-05-22T22:18:58.140Z,14.77
2023-05-22T22:23:59.929Z,14.74
2023-05-22T22:29:01.575Z,14.84
2023-05-22T22:34:05.554Z,15.00
2023-05-22T22:39:07.387Z,15.19
2023-05-22T22:44:09.104Z,15.35
2023-05-22T22:49:10.820Z,15.52
2023-05-22T22:54:15.320Z,15.61
2023-05-22T22:59:17.194Z,15.73
2023-05-22T23:04:18.878Z,15.80
2023-05-22T23:09:20.565Z,15.93
2023-05-22T23:14:22.565Z,16.02
2023-05-22T23:19:24.336Z,16.02
2023-05-22T23:24:25.972Z,16.05
2023-05-22T23:29:27.593Z,16.24
2023-05-22T23:34:29.222Z,16.36
2023-05-22T23:39:30.835Z,16.44
2023-05-22T23:44:32.414Z,16.54
2023-05-22T23:49:34.052Z,16.56
2023-05-22T23:54:35.654Z,16.43
2023-05-22T23:59:37.304Z,16.47
